Time;durP1;ratioP1;P1;durP2;ratioP2;P2;SDS_P1;SDS_P2;PMS_P1;PMS_P2;Temp;Humidity;BMP_temperature;BMP_pressure;BME280_temperature;BME280_humidity;BME280_pressure;Samples;Min_cycle;Max_cycle;Signal;HPM_P1;HPM_P2
2023/08/16 00:02:04;;;;;;;57.40;10.32;;;;;;;23.46;43.85;98723.72;5052245;28;20082;-45
2023/08/16 00:04:30;;;;;;;227.00;26.67;;;;;;;23.47;44.13;98741.41;5033781;28;20059;-45
2023/08/16 00:06:56;;;;;;;256.52;26.90;;;;;;;23.37;44.49;98736.94;5034200;28;20021;-45
2023/08/16 00:09:21;;;;;;;184.75;21.55;;;;;;;23.28;44.69;98741.31;5052310;28;20033;-44
2023/08/16 00:11:47;;;;;;;85.72;11.85;;;;;;;23.19;44.12;98730.44;5034263;28;20025;-45
2023/08/16 00:14:13;;;;;;;70.18;8.70;;;;;;;23.12;44.32;98738.78;5051874;28;20041;-44
2023/08/16 00:16:40;;;;;;;14.45;4.43;;;;;;;23.11;44.59;98739.06;5052085;28;20021;-45
2023/08/16 00:19:06;;;;;;;142.52;33.28;;;;;;;23.09;44.56;98736.66;5051946;28;20025;-45
2023/08/16 00:21:31;;;;;;;21.65;5.60;;;;;;;23.10;44.41;98729.44;5034035;28;20506;-45
2023/08/16 00:23:57;;;;;;;162.60;17.02;;;;;;;23.10;44.76;98740.13;5034054;28;20071;-45
2023/08/16 00:26:23;;;;;;;254.43;28.55;;;;;;;23.05;44.75;98734.84;5051893;28;20025;-44
2023/08/16 00:28:49;;;;;;;148.07;14.30;;;;;;;23.00;44.96;98729.47;5034128;28;20104;-45
2023/08/16 00:31:15;;;;;;;64.68;7.35;;;;;;;22.96;45.39;98731.13;5051672;28;20056;-45
2023/08/16 00:33:41;;;;;;;42.67;7.50;;;;;;;22.88;46.37;98732.56;5033939;28;20498;-45
2023/08/16 00:36:07;;;;;;;35.95;8.20;;;;;;;22.79;47.19;98729.66;5051754;28;20437;-44
2023/08/16 00:38:34;;;;;;;11.15;4.38;;;;;;;22.72;47.88;98729.19;5033902;28;20059;-44
2023/08/16 00:40:59;;;;;;;17.52;6.45;;;;;;;22.66;48.03;98735.66;5017374;28;20040;-45
2023/08/16 00:43:25;;;;;;;48.05;7.63;;;;;;;22.63;48.41;98733.53;5051709;28;20025;-44
2023/08/16 00:45:51;;;;;;;300.77;30.27;;;;;;;22.50;48.45;98732.28;5033911;28;20025;-44
2023/08/16 00:48:20;;;;;;;166.25;18.67;;;;;;;22.40;49.00;98738.50;5033749;28;20025;-44
2023/08/16 00:50:46;;;;;;;54.83;8.57;;;;;;;22.34;49.41;98728.91;5051559;28;20017;-44
2023/08/16 00:53:14;;;;;;;171.43;41.30;;;;;;;22.28;49.68;98730.81;5051499;28;20049;-44
2023/08/16 00:55:40;;;;;;;33.95;6.45;;;;;;;22.30;49.48;98727.84;5051633;28;20090;-45
2023/08/16 00:58:06;;;;;;;154.80;44.97;;;;;;;22.28;49.80;98724.66;5033718;28;20025;-44
2023/08/16 01:00:32;;;;;;;16.73;4.85;;;;;;;22.25;49.40;98730.53;5051479;28;20063;-45
2023/08/16 01:02:58;;;;;;;82.25;26.13;;;;;;;22.23;49.53;98727.31;5051569;28;20025;-45
2023/08/16 01:05:24;;;;;;;280.65;68.40;;;;;;;22.17;49.17;98729.22;5051460;28;20483;-45
2023/08/16 01:07:50;;;;;;;393.98;82.15;;;;;;;22.22;48.71;98726.53;5033646;28;20033;-45
2023/08/16 01:10:16;;;;;;;92.68;23.23;;;;;;;22.24;48.36;98723.63;5033484;28;20368;-44
2023/08/16 01:12:49;;;;;;;182.68;43.55;;;;;;;22.18;48.16;98724.69;5051210;28;20036;-45
2023/08/16 01:15:32;;;;;;;73.75;20.48;;;;;;;22.17;47.58;98728.41;5033634;28;20029;-45
2023/08/16 01:18:00;;;;;;;139.00;36.38;;;;;;;22.13;47.45;98720.97;5055388;28;20037;-44
2023/08/16 01:20:28;;;;;;;41.60;12.05;;;;;;;22.18;47.07;98722.81;5055564;28;20386;-44
2023/08/16 01:23:03;;;;;;;149.98;45.55;;;;;;;22.27;47.17;98720.38;5055296;28;20067;-44
2023/08/16 01:25:47;;;;;;;277.60;40.55;;;;;;;22.24;47.12;98716.38;5055157;28;20068;-44
2023/08/16 01:28:14;;;;;;;116.25;14.68;;;;;;;22.14;47.35;98722.56;5055197;28;20027;-44
2023/08/16 01:30:40;;;;;;;107.90;13.88;;;;;;;22.05;47.38;98721.50;5037201;28;20268;-45
2023/08/16 01:33:10;;;;;;;138.30;31.85;;;;;;;22.03;47.67;98722.88;5020768;28;20111;-44
2023/08/16 01:35:37;;;;;;;49.15;8.05;;;;;;;21.97;48.02;98716.75;5055049;28;20037;-45
2023/08/16 01:38:04;;;;;;;47.00;10.43;;;;;;;21.88;48.32;98713.06;5055283;28;20483;-44
2023/08/16 01:40:53;;;;;;;30.90;7.22;;;;;;;21.80;48.79;98708.28;5054874;28;20047;-45
2023/08/16 01:43:19;;;;;;;21.27;6.80;;;;;;;21.70;48.29;98715.25;5017352;28;20040;-45
2023/08/16 01:45:47;;;;;;;77.38;9.95;;;;;;;21.57;48.33;98715.03;5037087;28;20037;-45
2023/08/16 01:48:14;;;;;;;55.95;8.20;;;;;;;21.42;48.92;98713.97;5054869;28;20092;-45
2023/08/16 01:50:40;;;;;;;61.85;10.23;;;;;;;21.31;49.09;98717.75;5054675;28;20025;-44
2023/08/16 01:53:06;;;;;;;37.33;7.28;;;;;;;21.23;49.32;98718.25;5054696;28;20490;-44
2023/08/16 01:55:32;;;;;;;34.75;7.65;;;;;;;21.14;49.69;98723.34;5036997;28;20031;-44
2023/08/16 01:57:58;;;;;;;12.95;4.05;;;;;;;21.08;49.58;98721.75;5054620;28;20028;-44
2023/08/16 02:00:24;;;;;;;37.60;11.15;;;;;;;21.04;49.38;98718.81;5036637;28;20514;-44
2023/08/16 02:02:49;;;;;;;16.58;5.53;;;;;;;21.05;49.63;98731.13;5036664;28;20025;-44
2023/08/16 02:05:15;;;;;;;31.05;5.85;;;;;;;21.02;49.63;98728.97;5036593;28;20126;-44
2023/08/16 02:07:41;;;;;;;33.17;7.35;;;;;;;20.96;49.80;98730.03;5054495;28;20082;-44
2023/08/16 02:10:07;;;;;;;25.80;5.13;;;;;;;20.92;49.88;98721.75;5036447;28;20029;-44
2023/08/16 02:12:33;;;;;;;221.00;62.65;;;;;;;20.88;50.06;98725.22;5036494;28;20028;-44
2023/08/16 02:14:58;;;;;;;34.83;10.77;;;;;;;20.92;50.13;98728.97;5020166;28;20433;-44
2023/08/16 02:17:24;;;;;;;19.77;6.20;;;;;;;21.00;50.03;98724.97;5054303;28;20029;-44
2023/08/16 02:19:50;;;;;;;9.90;3.75;;;;;;;20.99;49.99;98731.34;5054505;28;20033;-44
2023/08/16 02:22:15;;;;;;;7.30;3.72;;;;;;;20.90;49.64;98731.09;5054216;28;20060;-44
2023/08/16 02:24:41;;;;;;;14.38;4.07;;;;;;;20.87;50.09;98729.78;5054209;28;20135;-44
2023/08/16 02:27:07;;;;;;;21.63;5.55;;;;;;;20.79;50.16;98721.53;5053510;28;20143;-44
2023/08/16 02:29:32;;;;;;;25.67;8.48;;;;;;;20.69;50.21;98717.75;5054014;28;20398;-45
2023/08/16 02:31:58;;;;;;;70.10;22.27;;;;;;;20.63;50.49;98716.16;5054003;28;20449;-44
2023/08/16 02:34:24;;;;;;;34.00;12.32;;;;;;;20.68;50.54;98715.34;5036120;28;20049;-44
2023/08/16 02:36:49;;;;;;;21.92;7.47;;;;;;;20.74;50.89;98716.97;5053960;28;20029;-44
2023/08/16 02:39:15;;;;;;;8.80;4.32;;;;;;;20.81;50.65;98717.50;5053927;28;20067;-44
2023/08/16 02:41:40;;;;;;;9.43;4.32;;;;;;;20.71;50.76;98712.97;5054009;28;20028;-44
2023/08/16 02:44:06;;;;;;;8.57;4.40;;;;;;;20.64;50.52;98725.75;5053850;28;20108;-45
2023/08/16 02:46:32;;;;;;;48.80;16.20;;;;;;;20.57;50.72;98717.19;5053785;28;20487;-45
2023/08/16 02:48:57;;;;;;;51.55;16.48;;;;;;;20.54;50.81;98715.03;5035818;28;20380;-45
2023/08/16 02:51:23;;;;;;;56.00;19.50;;;;;;;20.48;50.90;98714.25;5053720;28;20090;-44
2023/08/16 02:53:49;;;;;;;25.40;10.07;;;;;;;20.43;51.06;98710.78;5053989;28;20021;-44
2023/08/16 02:56:14;;;;;;;38.60;14.00;;;;;;;20.35;50.96;98717.41;5035664;28;20063;-45
2023/08/16 02:58:40;;;;;;;15.52;4.88;;;;;;;20.24;51.42;98716.59;5035687;28;20052;-44
2023/08/16 03:01:06;;;;;;;26.33;9.00;;;;;;;20.20;51.60;98722.69;5035734;28;20021;-44
2023/08/16 03:03:31;;;;;;;9.65;3.25;;;;;;;20.17;52.20;98720.56;5035530;28;20064;-44
2023/08/16 03:05:57;;;;;;;9.43;4.00;;;;;;;20.17;52.15;98720.56;5053444;28;20089;-45
2023/08/16 03:08:23;;;;;;;11.07;4.30;;;;;;;20.11;52.33;98712.56;5053408;28;20100;-45
2023/08/16 03:10:49;;;;;;;272.30;82.05;;;;;;;20.02;52.92;98715.97;5035361;28;20029;-44
2023/08/16 03:13:15;;;;;;;9.20;4.25;;;;;;;20.03;53.04;98710.41;5052990;28;20045;-44
2023/08/16 03:15:41;;;;;;;9.82;4.13;;;;;;;20.05;52.98;98708.28;5053181;28;20029;-45
2023/08/16 03:18:06;;;;;;;9.30;4.13;;;;;;;20.05;52.93;98713.59;5053173;28;20025;-44
2023/08/16 03:20:32;;;;;;;6.38;3.10;;;;;;;20.01;52.84;98715.19;5053152;28;20808;-44
2023/08/16 03:22:58;;;;;;;18.02;5.75;;;;;;;20.04;52.82;98716.53;5053088;28;20017;-44
2023/08/16 03:25:24;;;;;;;13.25;5.10;;;;;;;20.04;52.86;98720.00;5053072;28;20020;-44
2023/08/16 03:27:49;;;;;;;7.50;3.42;;;;;;;19.97;52.86;98719.44;5035268;28;20044;-44
2023/08/16 03:30:15;;;;;;;11.70;4.65;;;;;;;19.92;52.98;98719.41;5052756;28;20025;-44
2023/08/16 03:32:41;;;;;;;16.63;6.50;;;;;;;19.87;53.09;98717.53;5035057;28;20025;-44
2023/08/16 03:35:07;;;;;;;11.13;3.90;;;;;;;19.82;53.25;98716.69;5034844;28;20021;-44
2023/08/16 03:37:32;;;;;;;90.55;29.20;;;;;;;19.75;53.46;98714.28;5034698;28;20032;-44
2023/08/16 03:39:59;;;;;;;10.38;3.38;;;;;;;19.75;53.34;98716.94;5034167;28;20055;-45
2023/08/16 03:42:24;;;;;;;13.80;5.13;;;;;;;19.73;53.47;98716.41;5052614;28;20100;-45
2023/08/16 03:44:50;;;;;;;7.40;3.15;;;;;;;19.71;53.70;98721.19;5034734;28;20115;-44
2023/08/16 03:47:15;;;;;;;10.65;4.15;;;;;;;19.66;53.93;98718.47;5034605;28;20060;-45
2023/08/16 03:49:44;;;;;;;10.52;3.35;;;;;;;19.60;53.69;98728.31;5052486;28;20021;-44
2023/08/16 03:52:10;;;;;;;8.75;4.00;;;;;;;19.54;54.05;98719.47;5052440;28;20399;-44
2023/08/16 03:54:35;;;;;;;9.98;4.00;;;;;;;19.49;54.32;98723.97;5052485;28;20033;-44
2023/08/16 03:57:02;;;;;;;11.23;4.82;;;;;;;19.47;54.62;98726.09;5052387;28;20052;-44
2023/08/16 03:59:27;;;;;;;12.48;5.50;;;;;;;19.50;54.71;98729.03;5034605;28;20498;-44
2023/08/16 04:01:53;;;;;;;186.95;56.55;;;;;;;19.45;54.79;98730.88;5034433;28;20055;-45
2023/08/16 04:04:18;;;;;;;223.50;67.28;;;;;;;19.41;54.88;98732.44;5052286;28;20477;-44
2023/08/16 04:06:44;;;;;;;184.40;56.90;;;;;;;19.43;54.74;98735.66;5052236;28;20025;-44
2023/08/16 04:09:10;;;;;;;11.88;4.53;;;;;;;19.38;54.79;98730.28;5034204;28;20075;-45
2023/08/16 04:11:35;;;;;;;11.50;3.97;;;;;;;19.29;55.12;98737.94;5017984;28;20053;-44
2023/08/16 04:14:01;;;;;;;18.20;7.00;;;;;;;19.20;55.56;98734.19;5051810;28;20076;-44
2023/08/16 04:16:27;;;;;;;70.28;23.45;;;;;;;19.21;55.39;98735.78;5052079;28;20032;-45
2023/08/16 04:18:54;;;;;;;12.38;4.60;;;;;;;19.21;55.30;98731.25;5052089;28;20029;-44
2023/08/16 04:21:20;;;;;;;16.38;4.20;;;;;;;19.18;55.64;98730.97;5052025;28;20493;-45
2023/08/16 04:23:45;;;;;;;137.68;39.78;;;;;;;19.13;55.91;98740.50;5034122;28;20043;-44
2023/08/16 04:26:11;;;;;;;26.08;6.03;;;;;;;19.20;55.63;98745.63;5034166;28;20020;-45
2023/08/16 04:28:37;;;;;;;37.05;11.57;;;;;;;19.27;55.50;98743.53;5052142;28;20078;-45
2023/08/16 04:31:04;;;;;;;12.60;5.72;;;;;;;19.28;55.29;98752.31;5051695;28;20048;-44
2023/08/16 04:33:30;;;;;;;11.45;4.47;;;;;;;19.23;55.43;98754.94;5051863;28;20021;-44
2023/08/16 04:35:56;;;;;;;10.55;4.20;;;;;;;19.16;55.68;98750.63;5051776;28;20028;-44
2023/08/16 04:38:22;;;;;;;26.95;8.85;;;;;;;19.12;55.79;98764.72;5033930;28;20029;-44
2023/08/16 04:40:52;;;;;;;7.88;3.75;;;;;;;19.18;55.93;98752.25;5051621;28;20028;-44
2023/08/16 04:43:19;;;;;;;8.35;3.78;;;;;;;19.20;55.65;98755.47;5033829;28;20036;-44
2023/08/16 04:45:45;;;;;;;10.80;4.35;;;;;;;19.11;55.88;98758.56;5051621;28;20036;-44
2023/08/16 04:48:11;;;;;;;17.30;5.78;;;;;;;19.03;56.05;98760.91;5033809;28;20040;-45
2023/08/16 04:50:36;;;;;;;14.20;5.00;;;;;;;19.13;56.16;98760.97;5051343;28;20021;-44
2023/08/16 04:53:02;;;;;;;13.45;5.00;;;;;;;19.18;55.78;98762.91;5051610;28;20043;-44
2023/08/16 04:55:28;;;;;;;15.45;6.63;;;;;;;19.14;55.88;98763.41;5017279;28;20438;-45
2023/08/16 04:57:54;;;;;;;141.50;42.45;;;;;;;19.14;56.07;98759.94;5051533;28;20067;-45
2023/08/16 05:00:21;;;;;;;13.00;5.47;;;;;;;19.25;55.87;98760.81;5051569;28;20079;-44
2023/08/16 05:02:47;;;;;;;35.78;9.55;;;;;;;19.27;55.93;98764.81;5033785;28;20027;-44
2023/08/16 05:05:12;;;;;;;16.60;5.65;;;;;;;19.48;55.60;98763.09;5033787;28;20025;-44
2023/08/16 05:07:38;;;;;;;25.23;7.70;;;;;;;20.13;54.51;98757.59;5052098;28;20040;-44
2023/08/16 05:10:04;;;;;;;42.78;14.68;;;;;;;20.82;52.50;98759.09;5051409;28;20053;-44
2023/08/16 05:12:30;;;;;;;14.45;4.35;;;;;;;21.49;50.36;98749.25;5017205;28;20399;-44
2023/08/16 05:14:56;;;;;;;15.90;4.55;;;;;;;21.83;49.26;98756.63;5051203;28;20041;-45
2023/08/16 05:17:21;;;;;;;21.38;5.70;;;;;;;22.21;48.23;98748.19;5033576;28;20025;-44
2023/08/16 05:19:47;;;;;;;24.38;5.85;;;;;;;22.54;46.59;98747.50;5033552;28;20579;-45
2023/08/16 05:22:13;;;;;;;10.48;3.70;;;;;;;22.87;46.31;98741.66;5051255;28;20466;-45
2023/08/16 05:24:39;;;;;;;12.75;4.30;;;;;;;23.26;45.39;98744.28;5051397;28;20074;-45
2023/08/16 05:27:11;;;;;;;14.35;4.47;;;;;;;23.51;43.73;98747.78;5051222;28;20064;-44
2023/08/16 05:29:38;;;;;;;16.83;6.72;;;;;;;23.59;43.69;98747.19;5051497;28;20431;-44
2023/08/16 05:32:03;;;;;;;11.02;4.38;;;;;;;23.78;43.18;98749.94;5051753;28;20040;-44
2023/08/16 05:34:29;;;;;;;10.23;3.75;;;;;;;23.86;42.67;98756.56;5033376;28;20487;-45
2023/08/16 05:36:55;;;;;;;9.88;3.97;;;;;;;23.83;42.48;98755.25;5051180;28;20453;-45
2023/08/16 05:39:22;;;;;;;13.93;3.72;;;;;;;23.76;43.04;98753.97;5051129;28;20108;-44
2023/08/16 05:41:48;;;;;;;17.42;5.18;;;;;;;23.56;43.47;98753.09;5051095;28;20439;-44
2023/08/16 05:44:14;;;;;;;7.50;2.80;;;;;;;23.49;43.25;98747.28;5051192;28;20083;-44
2023/08/16 05:46:40;;;;;;;25.58;7.97;;;;;;;23.68;43.54;98748.16;5051153;28;20017;-44
2023/08/16 05:49:06;;;;;;;8.05;3.10;;;;;;;24.11;42.22;98745.53;5051039;28;20434;-45
2023/08/16 05:51:35;;;;;;;5.75;2.90;;;;;;;24.61;41.13;98749.69;5051162;28;20048;-44
2023/08/16 05:54:03;;;;;;;7.13;3.20;;;;;;;25.17;39.83;98746.09;5051120;28;20029;-45
2023/08/16 05:56:29;;;;;;;21.50;7.72;;;;;;;25.45;39.66;98755.03;5050971;28;20103;-45
2023/08/16 05:58:55;;;;;;;6.30;3.22;;;;;;;25.87;38.43;98757.75;5051234;28;20115;-44
2023/08/16 06:01:21;;;;;;;5.32;3.10;;;;;;;26.29;37.93;98743.19;5051259;28;20548;-44
2023/08/16 06:03:47;;;;;;;6.50;3.33;;;;;;;26.53;37.13;98746.72;5036671;28;20128;-44
2023/08/16 06:06:12;;;;;;;8.00;4.18;;;;;;;26.77;36.70;98743.78;5054539;28;20092;-44
2023/08/16 06:08:38;;;;;;;12.05;3.47;;;;;;;27.05;36.35;98742.53;5054761;28;20044;-45
2023/08/16 06:11:05;;;;;;;11.57;3.30;;;;;;;27.32;35.35;98746.19;5054374;28;20014;-44
2023/08/16 06:13:31;;;;;;;7.28;3.25;;;;;;;27.62;35.07;98744.56;5054153;28;20056;-45
2023/08/16 06:15:56;;;;;;;7.25;3.50;;;;;;;27.83;34.89;98739.41;5054370;28;20017;-45
2023/08/16 06:18:22;;;;;;;5.28;3.05;;;;;;;28.12;34.27;98748.88;5054391;28;20025;-45
2023/08/16 06:20:48;;;;;;;28.30;10.00;;;;;;;28.74;33.80;98750.53;5036343;28;20025;-45
2023/08/16 06:23:13;;;;;;;9.90;4.80;;;;;;;29.33;32.55;98741.84;5054477;28;20047;-45
2023/08/16 06:25:39;;;;;;;19.20;5.82;;;;;;;29.66;32.07;98742.03;5036342;28;20513;-45
2023/08/16 06:28:05;;;;;;;12.00;4.15;;;;;;;29.75;31.68;98743.94;5054119;28;20079;-45
2023/08/16 06:30:30;;;;;;;11.40;3.75;;;;;;;30.32;30.96;98751.53;5053943;28;20031;-45
2023/08/16 06:32:56;;;;;;;11.70;3.80;;;;;;;30.89;29.92;98746.63;5036168;28;20033;-45
2023/08/16 06:35:22;;;;;;;6.93;2.78;;;;;;;31.05;29.12;98734.06;5053986;28;20495;-45
2023/08/16 06:37:47;;;;;;;22.05;6.65;;;;;;;31.31;28.96;98741.91;5053943;28;20477;-45
2023/08/16 06:40:13;;;;;;;36.20;11.98;;;;;;;31.83;28.40;98732.31;5035974;28;20036;-45
2023/08/16 06:42:42;;;;;;;5.78;2.63;;;;;;;32.32;27.52;98731.47;5053895;28;20029;-45
2023/08/16 06:45:09;;;;;;;8.93;2.60;;;;;;;32.17;27.71;98724.84;5053844;28;20391;-45
2023/08/16 06:47:35;;;;;;;12.15;3.50;;;;;;;31.97;27.73;98730.03;5054002;28;20490;-45
2023/08/16 06:50:01;;;;;;;31.45;10.15;;;;;;;32.17;27.73;98728.31;5035679;28;20040;-45
2023/08/16 06:52:27;;;;;;;8.95;3.88;;;;;;;33.05;26.96;98727.66;5035747;28;20031;-45
2023/08/16 06:54:52;;;;;;;70.45;23.13;;;;;;;33.97;25.73;98728.34;5053665;28;20029;-45
2023/08/16 06:57:18;;;;;;;53.38;13.63;;;;;;;34.71;24.91;98733.03;5035740;28;20043;-45
2023/08/16 06:59:44;;;;;;;14.32;4.95;;;;;;;34.32;24.96;98730.28;5053539;28;20057;-45
2023/08/16 07:02:14;;;;;;;50.05;17.00;;;;;;;33.44;26.10;98730.59;5053731;28;20079;-45
2023/08/16 07:04:42;;;;;;;51.10;17.15;;;;;;;33.78;25.72;98725.59;5053432;28;20024;-45
2023/08/16 07:07:09;;;;;;;11.27;4.30;;;;;;;34.56;24.98;98715.56;5053596;28;20564;-46
2023/08/16 07:09:35;;;;;;;59.22;18.08;;;;;;;34.89;24.74;98716.22;5053320;28;20563;-45
2023/08/16 07:12:00;;;;;;;30.48;10.05;;;;;;;35.05;24.24;98714.16;5053303;28;20036;-46
2023/08/16 07:14:26;;;;;;;35.75;10.85;;;;;;;35.40;23.90;98718.66;5035381;28;20418;-46
2023/08/16 07:16:52;;;;;;;22.23;4.85;;;;;;;36.07;24.72;98722.78;5053194;28;20510;-46
2023/08/16 07:19:18;;;;;;;16.38;3.67;;;;;;;36.81;24.05;98721.34;5053194;28;20368;-46
2023/08/16 07:21:43;;;;;;;27.60;4.68;;;;;;;37.47;23.60;98725.09;5053055;28;20029;-46
2023/08/16 07:24:09;;;;;;;25.70;3.90;;;;;;;38.53;22.50;98730.78;5035209;28;20029;-46
2023/08/16 07:26:35;;;;;;;18.08;4.72;;;;;;;39.46;21.33;98730.16;5052982;28;20025;-48
2023/08/16 07:29:00;;;;;;;16.90;3.95;;;;;;;40.43;20.09;98733.50;5052987;28;20104;-48
2023/08/16 07:31:26;;;;;;;18.50;4.18;;;;;;;41.13;19.38;98732.66;5052838;28;20513;-48
2023/08/16 07:33:52;;;;;;;30.88;6.25;;;;;;;41.84;18.32;98739.56;5052823;28;20032;-48
2023/08/16 07:36:18;;;;;;;25.38;5.18;;;;;;;42.30;17.83;98738.25;5053124;28;20032;-48
2023/08/16 07:38:46;;;;;;;28.40;8.23;;;;;;;41.84;17.94;98742.31;5053049;28;20025;-48
2023/08/16 07:41:12;;;;;;;19.70;5.43;;;;;;;41.55;18.28;98739.00;5034798;28;20046;-48
2023/08/16 07:43:37;;;;;;;12.07;3.47;;;;;;;42.31;17.32;98739.81;5052756;28;20104;-48
2023/08/16 07:46:03;;;;;;;21.17;5.00;;;;;;;42.97;16.19;98739.75;5052683;28;20495;-48
2023/08/16 07:48:29;;;;;;;22.13;4.32;;;;;;;43.70;16.02;98743.69;5052615;28;20542;-48
2023/08/16 07:50:55;;;;;;;22.00;4.93;;;;;;;44.31;15.22;98744.47;5034629;28;20106;-48
2023/08/16 07:53:22;;;;;;;20.98;4.30;;;;;;;44.71;15.33;98747.97;5034623;28;20035;-48
2023/08/16 07:55:48;;;;;;;35.17;9.32;;;;;;;45.03;15.47;98747.25;5052662;28;20108;-48
2023/08/16 07:58:15;;;;;;;26.42;7.28;;;;;;;45.62;15.11;98747.38;5052482;28;20024;-49
2023/08/16 08:00:48;;;;;;;11.27;3.95;;;;;;;46.26;14.91;98752.41;5052326;28;20048;-48
2023/08/16 08:03:14;;;;;;;21.63;5.20;;;;;;;46.58;14.50;98757.78;5052302;28;20029;-49
2023/08/16 08:05:39;;;;;;;36.40;12.88;;;;;;;46.56;14.39;98749.13;5052636;28;20036;-49
2023/08/16 08:08:06;;;;;;;31.30;10.02;;;;;;;47.34;13.86;98750.63;5034380;28;20498;-49
2023/08/16 08:10:32;;;;;;;20.95;4.95;;;;;;;47.60;13.41;98753.38;5034481;28;20033;-49
2023/08/16 08:12:58;;;;;;;19.55;6.75;;;;;;;46.05;14.18;98754.59;5051903;28;20584;-48
2023/08/16 08:15:24;;;;;;;17.50;3.75;;;;;;;44.55;15.17;98759.03;5034282;28;20039;-49
2023/08/16 08:17:49;;;;;;;24.35;6.95;;;;;;;42.43;16.67;98762.53;5052068;28;20549;-48
2023/08/16 08:20:15;;;;;;;46.20;10.05;;;;;;;40.87;18.84;98767.88;5034183;28;20045;-48
2023/08/16 08:22:42;;;;;;;22.45;3.72;;;;;;;39.53;19.40;98774.13;5034245;28;20063;-48
2023/08/16 08:25:08;;;;;;;10.13;3.00;;;;;;;38.49;20.52;98779.34;5033711;28;20029;-48
2023/08/16 08:27:34;;;;;;;12.00;3.63;;;;;;;37.78;21.08;98780.50;5051900;28;20025;-48
2023/08/16 08:30:01;;;;;;;21.27;7.90;;;;;;;36.96;21.85;98772.28;5033885;28;20021;-48
2023/08/16 08:32:27;;;;;;;40.63;5.50;;;;;;;37.45;21.98;98781.38;5051888;28;20104;-48
2023/08/16 08:34:52;;;;;;;13.57;3.50;;;;;;;37.71;21.73;98783.97;5051887;28;20456;-48
2023/08/16 08:37:18;;;;;;;14.98;3.38;;;;;;;38.60;21.00;98784.88;5033922;28;20037;-48
2023/08/16 08:39:44;;;;;;;29.23;8.32;;;;;;;40.07;20.08;98790.56;5033860;28;20499;-48
2023/08/16 08:42:09;;;;;;;31.45;9.68;;;;;;;41.28;18.67;98797.50;5051764;28;20028;-48
2023/08/16 08:44:38;;;;;;;18.83;4.43;;;;;;;42.72;17.33;98796.06;5051720;28;20028;-48
2023/08/16 08:47:09;;;;;;;29.10;6.03;;;;;;;43.92;16.14;98785.53;5051625;28;20045;-48
2023/08/16 08:49:35;;;;;;;16.33;4.25;;;;;;;45.12;14.86;98785.44;5051508;28;20055;-49
2023/08/16 08:52:04;;;;;;;19.00;6.68;;;;;;;45.50;14.76;98775.81;5051641;28;20443;-48
2023/08/16 08:54:31;;;;;;;19.40;4.60;;;;;;;46.02;13.98;98778.41;5033874;28;20071;-48
2023/08/16 08:56:59;;;;;;;33.35;10.77;;;;;;;46.67;13.79;98778.56;5051600;28;20025;-49
2023/08/16 08:59:28;;;;;;;20.50;5.03;;;;;;;47.60;13.37;98778.41;5051800;28;20029;-48
2023/08/16 09:01:54;;;;;;;25.70;6.15;;;;;;;47.74;13.05;98771.56;5051506;28;20498;-49
2023/08/16 09:04:21;;;;;;;10.07;3.38;;;;;;;47.91;12.10;98786.03;5051499;28;20024;-49
2023/08/16 09:06:48;;;;;;;10.07;3.80;;;;;;;48.59;11.47;98773.19;5017160;28;20025;-49
2023/08/16 09:09:14;;;;;;;26.33;9.70;;;;;;;49.23;11.35;98777.47;5051433;28;20028;-49
2023/08/16 09:11:41;;;;;;;93.47;27.23;;;;;;;49.54;11.31;98777.34;5051380;28;20032;-49
2023/08/16 09:14:07;;;;;;;33.17;10.30;;;;;;;49.49;11.46;98775.19;5051165;28;20044;-49
2023/08/16 09:16:33;;;;;;;20.75;7.18;;;;;;;49.42;11.33;98775.50;5051289;28;20017;-48
2023/08/16 09:18:58;;;;;;;32.75;8.68;;;;;;;49.56;11.77;98777.66;5051433;28;20036;-48
2023/08/16 09:21:28;;;;;;;15.73;4.55;;;;;;;49.51;11.24;98774.75;5051354;28;20025;-49
2023/08/16 09:23:58;;;;;;;9.82;3.38;;;;;;;49.60;11.25;98768.38;5051265;28;20040;-48
2023/08/16 09:26:27;;;;;;;23.42;5.00;;;;;;;50.00;10.60;98773.78;5033405;28;20036;-49
2023/08/16 09:29:02;;;;;;;15.10;3.15;;;;;;;50.01;10.94;98778.16;5016985;28;20078;-48
2023/08/16 09:31:31;;;;;;;24.90;6.50;;;;;;;49.82;10.96;98776.59;5051114;28;20522;-49
2023/08/16 09:34:01;;;;;;;19.45;9.95;;;;;;;49.74;10.93;98776.91;5051262;28;20017;-49
2023/08/16 09:36:31;;;;;;;16.73;5.05;;;;;;;49.92;10.64;98780.94;5051557;28;20021;-48
2023/08/16 09:39:10;;;;;;;27.15;6.78;;;;;;;50.12;10.35;98777.69;5055315;28;20414;-48
2023/08/16 09:41:45;;;;;;;13.68;5.53;;;;;;;50.05;10.06;98789.13;5055258;28;20493;-49
2023/08/16 09:44:10;;;;;;;16.10;6.20;;;;;;;50.14;10.27;98780.78;5054988;28;20426;-49
2023/08/16 09:46:41;;;;;;;9.77;5.65;;;;;;;50.06;10.20;98793.47;5054919;28;20104;-49
2023/08/16 09:49:08;;;;;;;18.95;10.10;;;;;;;49.99;10.43;98783.41;5054891;28;20040;-49
2023/08/16 09:51:39;;;;;;;23.95;7.38;;;;;;;49.58;10.68;98780.75;5037292;28;20017;-48
2023/08/16 09:54:12;;;;;;;34.13;11.07;;;;;;;47.27;11.65;98787.03;5054815;28;20051;-49
2023/08/16 09:56:39;;;;;;;32.58;13.38;;;;;;;45.68;12.29;98795.56;5054699;28;20025;-48
2023/08/16 09:59:09;;;;;;;61.38;36.97;;;;;;;45.17;12.84;98797.97;5036830;28;20029;-48
2023/08/16 10:01:37;;;;;;;36.45;11.52;;;;;;;44.21;13.57;98798.81;5036794;28;20025;-48
2023/08/16 10:04:04;;;;;;;20.20;5.70;;;;;;;43.52;13.92;98801.25;5054640;28;20025;-49
2023/08/16 10:06:31;;;;;;;19.58;7.93;;;;;;;42.35;14.67;98791.41;5054531;28;20510;-48
2023/08/16 10:08:57;;;;;;;81.45;44.67;;;;;;;42.04;15.32;98792.16;5054544;28;20564;-48
2023/08/16 10:11:23;;;;;;;50.50;21.17;;;;;;;42.64;15.05;98778.84;5036694;28;20029;-48
2023/08/16 10:13:50;;;;;;;62.67;25.65;;;;;;;43.44;14.25;98784.00;5054263;28;20048;-48
2023/08/16 10:16:19;;;;;;;21.70;6.32;;;;;;;43.44;14.66;98779.25;5054426;28;20060;-48
2023/08/16 10:18:47;;;;;;;30.20;14.68;;;;;;;42.64;14.96;98781.59;5036432;28;20398;-49
2023/08/16 10:21:17;;;;;;;51.10;20.80;;;;;;;42.97;14.71;98783.94;5054324;28;20021;-48
2023/08/16 10:23:44;;;;;;;60.38;25.60;;;;;;;44.50;13.16;98785.22;5054251;28;20019;-48
2023/08/16 10:26:14;;;;;;;15.70;8.10;;;;;;;45.94;12.64;98767.94;5054231;28;20056;-49
2023/08/16 10:28:44;;;;;;;79.40;41.42;;;;;;;46.93;11.60;98766.25;5054056;28;20021;-49
2023/08/16 10:31:11;;;;;;;79.47;43.25;;;;;;;47.71;11.68;98759.31;5036112;28;20083;-48
2023/08/16 10:33:44;;;;;;;214.45;119.78;;;;;;;48.45;10.92;98770.19;5054030;28;20028;-49
2023/08/16 10:36:11;;;;;;;90.05;49.00;;;;;;;48.80;10.71;98762.47;5054062;28;20021;-48
2023/08/16 10:38:38;;;;;;;49.53;25.05;;;;;;;48.90;10.48;98761.28;5053932;28;20029;-49
2023/08/16 10:41:14;;;;;;;36.20;16.38;;;;;;;48.65;10.71;98761.50;5053965;28;20036;-49
2023/08/16 10:43:47;;;;;;;65.38;33.28;;;;;;;48.49;11.11;98762.47;5053872;28;20017;-49
2023/08/16 10:46:23;;;;;;;43.10;20.80;;;;;;;47.96;10.95;98766.78;5053782;28;20032;-49
2023/08/16 10:48:58;;;;;;;59.08;31.33;;;;;;;47.39;11.44;98761.19;5053421;28;20103;-49
2023/08/16 10:51:25;;;;;;;137.13;71.78;;;;;;;47.78;11.19;98764.63;5053709;28;20490;-49
2023/08/16 10:53:50;;;;;;;144.55;76.43;;;;;;;48.37;10.91;98761.34;5053731;28;20017;-49
2023/08/16 10:56:19;;;;;;;36.85;19.63;;;;;;;48.86;10.73;98755.06;5053585;28;20403;-49
2023/08/16 10:58:50;;;;;;;20.75;11.38;;;;;;;48.39;10.99;98758.88;5053572;28;20056;-49
2023/08/16 11:01:17;;;;;;;63.05;32.10;;;;;;;47.46;10.97;98764.97;5035591;28;20462;-49
2023/08/16 11:03:49;;;;;;;59.00;29.83;;;;;;;47.31;11.49;98762.66;5053520;28;20021;-49
2023/08/16 11:06:19;;;;;;;81.22;41.90;;;;;;;47.64;10.81;98754.00;5053753;28;20482;-49
2023/08/16 11:08:45;;;;;;;64.63;31.00;;;;;;;47.77;11.49;98751.16;5053386;28;20021;-49
2023/08/16 11:11:14;;;;;;;115.65;54.95;;;;;;;47.85;10.58;98741.34;5035318;28;20502;-49
2023/08/16 11:13:41;;;;;;;100.75;48.35;;;;;;;48.06;10.94;98748.16;5018869;28;20044;-49
2023/08/16 11:16:09;;;;;;;46.35;20.50;;;;;;;48.35;10.38;98741.53;5053189;28;20017;-49
2023/08/16 11:18:36;;;;;;;77.00;36.65;;;;;;;48.35;10.70;98741.53;5053191;28;20036;-49
2023/08/16 11:21:03;;;;;;;56.58;26.88;;;;;;;47.89;10.31;98738.41;5035239;28;20506;-49